createdAt,value
2018-07-05T00:01:18.913Z,12.87
2018-07-05T00:04:03.914Z,10.77
2018-07-05T00:06:47.517Z,11.13
2018-07-05T00:09:27.101Z,13.30
2018-07-05T00:12:06.989Z,8.50
2018-07-05T00:14:47.653Z,9.83
2018-07-05T00:17:29.655Z,11.80
2018-07-05T00:20:12.055Z,10.90
2018-07-05T00:22:51.886Z,10.73
2018-07-05T00:25:33.642Z,10.23
2018-07-05T00:28:13.468Z,10.23
2018-07-05T00:30:53.394Z,10.87
2018-07-05T00:33:33.352Z,10.83
2018-07-05T00:36:17.784Z,9.67
2018-07-05T00:38:59.634Z,9.83
2018-07-05T00:41:45.321Z,10.63
2018-07-05T00:44:26.979Z,10.10
2018-07-05T00:47:09.658Z,11.07
2018-07-05T00:49:51.184Z,13.47
2018-07-05T00:52:30.894Z,9.33
2018-07-05T00:55:10.534Z,13.77
2018-07-05T00:57:50.194Z,7.50
2018-07-05T01:00:29.956Z,10.13
2018-07-05T01:03:12.861Z,9.83
2018-07-05T01:05:56.226Z,14.20
2018-07-05T01:08:32.110Z,10.23
2018-07-05T01:11:11.680Z,9.63
2018-07-05T01:13:54.124Z,10.97
2018-07-05T01:16:39.376Z,9.10
2018-07-05T01:19:22.959Z,8.93
2018-07-05T01:22:05.732Z,10.07
2018-07-05T01:24:50.113Z,11.87
2018-07-05T01:27:29.874Z,8.63
2018-07-05T01:30:10.518Z,9.90
2018-07-05T01:32:47.756Z,9.80
2018-07-05T01:35:28.655Z,9.57
2018-07-05T01:38:14.050Z,10.03
2018-07-05T01:43:46.499Z,11.00
2018-07-05T01:46:26.514Z,9.87
2018-07-05T01:49:19.094Z,7.97
2018-07-05T01:52:03.771Z,8.47
2018-07-05T01:54:44.418Z,11.13
2018-07-05T01:57:24.348Z,14.80
2018-07-05T02:00:09.519Z,9.57
2018-07-05T02:02:51.899Z,9.70
2018-07-05T02:05:34.493Z,10.93
2018-07-05T02:08:14.578Z,8.53
2018-07-05T02:10:54.298Z,7.83
2018-07-05T02:13:34.060Z,8.37
2018-07-05T02:16:15.724Z,9.17
2018-07-05T02:18:56.394Z,11.57
2018-07-05T02:21:37.145Z,7.20
2018-07-05T02:24:25.928Z,8.00
2018-07-05T02:27:06.774Z,10.70
2018-07-05T02:29:47.343Z,6.80
2018-07-05T02:32:29.536Z,7.67
2018-07-05T02:35:11.043Z,9.43
2018-07-05T02:37:56.365Z,7.50
2018-07-05T02:40:41.453Z,5.83
2018-07-05T02:46:21.385Z,10.53
2018-07-05T02:49:01.262Z,8.17
2018-07-05T02:51:41.033Z,12.73
2018-07-05T02:54:15.103Z,8.23
2018-07-05T02:56:55.333Z,7.50
2018-07-05T02:59:38.568Z,7.83
2018-07-05T03:02:21.381Z,8.43
2018-07-05T03:05:02.389Z,7.10
2018-07-05T03:07:48.810Z,8.30
2018-07-05T03:10:34.205Z,6.43
2018-07-05T03:13:09.394Z,7.60
2018-07-05T03:15:52.319Z,7.30
2018-07-05T03:21:25.073Z,8.80
2018-07-05T03:24:06.849Z,12.67
2018-07-05T03:26:47.323Z,10.33
2018-07-05T03:29:30.585Z,10.70
2018-07-05T03:32:11.202Z,8.77
2018-07-05T03:34:55.724Z,11.87
2018-07-05T03:37:35.402Z,11.20
2018-07-05T03:40:16.017Z,10.57
2018-07-05T03:42:55.935Z,7.40
2018-07-05T03:45:39.593Z,8.97
2018-07-05T03:48:20.235Z,10.67
2018-07-05T03:51:11.171Z,9.73
2018-07-05T03:56:45.557Z,10.23
2018-07-05T04:02:18.650Z,10.67
2018-07-05T04:04:58.383Z,8.87
2018-07-05T04:07:38.141Z,7.37
2018-07-05T04:10:18.766Z,9.13
2018-07-05T04:13:00.220Z,8.63
2018-07-05T04:15:41.017Z,9.67
2018-07-05T04:18:20.794Z,9.63
2018-07-05T04:21:00.466Z,11.53
2018-07-05T04:23:40.176Z,10.60
2018-07-05T04:26:21.931Z,15.40
2018-07-05T04:29:06.931Z,10.47
2018-07-05T04:31:46.670Z,8.73
2018-07-05T04:34:30.098Z,12.73
2018-07-05T04:37:13.760Z,13.47
2018-07-05T04:39:57.073Z,11.30
2018-07-05T04:42:37.857Z,21.07
2018-07-05T04:45:18.568Z,12.07
2018-07-05T04:47:59.856Z,10.70
2018-07-05T04:50:42.690Z,10.37
2018-07-05T04:53:26.672Z,14.80
2018-07-05T04:56:06.932Z,18.70
2018-07-05T04:58:48.051Z,12.80
2018-07-05T05:01:28.352Z,10.73
2018-07-05T05:04:08.960Z,13.07
2018-07-05T05:06:50.740Z,11.50
2018-07-05T05:09:33.800Z,14.57
2018-07-05T05:12:14.304Z,10.43
2018-07-05T05:17:48.472Z,11.03
2018-07-05T05:20:29.302Z,13.50
2018-07-05T05:23:09.832Z,14.00
2018-07-05T05:25:52.724Z,14.73
2018-07-05T05:28:27.884Z,16.93
2018-07-05T05:34:00.934Z,14.50
2018-07-05T05:36:43.807Z,12.60
2018-07-05T05:39:23.582Z,12.97
2018-07-05T05:42:03.168Z,18.83
2018-07-05T05:44:45.013Z,11.00
2018-07-05T05:47:25.016Z,12.77
2018-07-05T05:50:06.098Z,14.43
2018-07-05T05:52:46.106Z,10.77
2018-07-05T05:55:27.998Z,12.07
2018-07-05T05:58:11.377Z,12.23
2018-07-05T06:00:53.098Z,9.87
2018-07-05T06:03:32.902Z,12.10
2018-07-05T06:06:18.548Z,11.37
2018-07-05T06:08:59.243Z,11.77
2018-07-05T06:11:39.710Z,10.20
2018-07-05T06:14:22.979Z,13.17
2018-07-05T06:17:04.776Z,12.53
2018-07-05T06:19:48.870Z,15.23
2018-07-05T06:22:28.790Z,11.57
2018-07-05T06:25:08.988Z,10.90
2018-07-05T06:27:50.719Z,14.87
2018-07-05T06:30:34.592Z,14.67
2018-07-05T06:33:15.106Z,15.60
2018-07-05T06:35:55.495Z,12.13
2018-07-05T06:38:38.422Z,12.03
2018-07-05T06:41:19.608Z,19.20
2018-07-05T06:44:01.604Z,15.13
2018-07-05T06:46:41.422Z,14.33
2018-07-05T06:49:22.604Z,14.23
2018-07-05T06:52:03.472Z,11.60
2018-07-05T06:54:48.246Z,11.37
2018-07-05T06:57:28.988Z,13.77
2018-07-05T07:00:08.642Z,10.27
2018-07-05T07:02:48.401Z,13.90
2018-07-05T07:05:28.914Z,12.73
2018-07-05T07:13:56.755Z,12.03
2018-07-05T07:16:38.410Z,12.20
2018-07-05T07:19:25.224Z,11.60
2018-07-05T07:22:11.140Z,10.33
2018-07-05T07:24:51.762Z,13.87
2018-07-05T07:27:36.670Z,10.60
2018-07-05T07:30:16.355Z,11.10
2018-07-05T07:32:59.993Z,10.97
2018-07-05T07:35:43.492Z,19.67
2018-07-05T07:38:25.790Z,13.97
2018-07-05T07:41:06.402Z,16.10
2018-07-05T07:43:42.628Z,11.90
2018-07-05T07:46:12.002Z,13.57
2018-07-05T07:48:39.416Z,11.83
2018-07-05T07:51:06.844Z,14.60
2018-07-05T07:53:35.250Z,12.23
2018-07-05T07:56:02.712Z,12.87
2018-07-05T07:58:47.610Z,14.70
2018-07-05T08:01:33.497Z,13.13
2018-07-05T08:04:04.111Z,10.60
2018-07-05T08:06:31.557Z,12.60
2018-07-05T08:08:59.056Z,11.10
2018-07-05T08:11:27.407Z,14.33
2018-07-05T08:13:56.728Z,13.07
2018-07-05T08:16:25.112Z,13.00
2018-07-05T08:18:53.321Z,10.07
2018-07-05T08:21:20.648Z,12.77
2018-07-05T08:24:03.014Z,12.17
2018-07-05T08:26:31.522Z,10.00
2018-07-05T08:29:02.654Z,10.50
2018-07-05T08:31:33.224Z,9.47
2018-07-05T08:36:51.444Z,8.07
2018-07-05T08:39:25.000Z,10.07
2018-07-05T08:41:52.916Z,9.20
2018-07-05T08:44:22.164Z,10.33
2018-07-05T08:46:54.214Z,10.07
2018-07-05T08:49:33.444Z,9.47
2018-07-05T08:52:11.469Z,10.70
2018-07-05T08:54:40.889Z,12.70
2018-07-05T08:57:09.190Z,6.10
2018-07-05T08:59:36.988Z,8.33
2018-07-05T09:02:06.313Z,6.00
2018-07-05T09:04:34.095Z,5.67
2018-07-05T09:07:01.483Z,6.70
2018-07-05T09:09:28.990Z,6.53
2018-07-05T09:12:07.126Z,6.87
2018-07-05T09:14:38.095Z,7.27
2018-07-05T09:17:09.482Z,7.93
2018-07-05T09:19:36.932Z,6.27
2018-07-05T09:22:04.378Z,7.90
2018-07-05T09:24:31.840Z,6.87
2018-07-05T09:26:59.312Z,9.13
2018-07-05T09:29:35.696Z,7.10
2018-07-05T09:32:26.415Z,10.73
2018-07-05T09:34:53.708Z,18.90
2018-07-05T09:37:25.422Z,13.23
2018-07-05T09:39:54.686Z,7.00
2018-07-05T09:42:22.129Z,8.27
2018-07-05T09:44:51.433Z,5.77
2018-07-05T09:47:18.937Z,8.87
2018-07-05T09:49:46.406Z,6.93
2018-07-05T09:52:18.399Z,9.63
2018-07-05T09:54:47.788Z,8.47
2018-07-05T09:57:18.856Z,7.53
2018-07-05T09:59:48.206Z,10.20
2018-07-05T10:02:17.849Z,10.63
2018-07-05T10:04:46.206Z,8.20
2018-07-05T10:07:17.012Z,7.13
2018-07-05T10:09:44.470Z,6.13
2018-07-05T10:12:11.920Z,8.17
2018-07-05T10:14:41.114Z,8.87
2018-07-05T10:17:15.102Z,10.20
2018-07-05T10:19:43.535Z,9.37
2018-07-05T10:22:11.939Z,8.03
2018-07-05T10:24:39.349Z,6.57
2018-07-05T10:27:07.635Z,7.90
2018-07-05T10:29:47.353Z,9.43
2018-07-05T10:32:27.134Z,7.13
2018-07-05T10:35:16.450Z,9.17
2018-07-05T10:37:45.816Z,7.83
2018-07-05T10:40:25.666Z,9.87
2018-07-05T10:43:05.588Z,9.33
2018-07-05T10:45:47.332Z,7.37
2018-07-05T10:48:26.950Z,11.17
2018-07-05T10:51:00.610Z,10.70
2018-07-05T10:53:41.843Z,11.97
2018-07-05T10:56:21.682Z,10.90
2018-07-05T10:59:01.372Z,8.80
2018-07-05T11:01:45.664Z,12.27
2018-07-05T11:04:26.443Z,8.43
2018-07-05T11:07:08.206Z,9.93
2018-07-05T11:09:49.232Z,9.93
2018-07-05T11:12:31.910Z,10.03
2018-07-05T11:15:13.701Z,12.17
2018-07-05T11:17:53.801Z,8.50
2018-07-05T11:20:37.773Z,8.63
2018-07-05T11:26:10.628Z,9.87
2018-07-05T11:28:51.297Z,8.80
2018-07-05T11:31:33.834Z,6.77
2018-07-05T11:34:17.778Z,12.10
2018-07-05T11:36:57.528Z,8.37
2018-07-05T11:39:41.160Z,7.00
2018-07-05T11:42:24.072Z,7.40
2018-07-05T11:45:03.806Z,6.17
2018-07-05T11:47:43.578Z,7.83
2018-07-05T11:50:23.194Z,6.60
2018-07-05T11:53:03.886Z,5.20
2018-07-05T11:55:37.488Z,5.93
2018-07-05T11:58:18.262Z,5.47
2018-07-05T12:01:00.069Z,5.37
2018-07-05T12:03:43.720Z,4.83
2018-07-05T12:06:26.666Z,6.47
2018-07-05T12:09:07.801Z,8.70
2018-07-05T12:11:50.236Z,8.13
2018-07-05T12:14:31.378Z,7.80
2018-07-05T12:17:11.182Z,7.63
2018-07-05T12:19:50.788Z,8.80
2018-07-05T12:22:31.610Z,7.27
2018-07-05T12:25:12.351Z,10.80
2018-07-05T12:27:52.080Z,10.17
2018-07-05T12:30:36.214Z,12.13
2018-07-05T12:33:29.570Z,12.03
2018-07-05T12:36:12.028Z,10.47
2018-07-05T12:38:51.830Z,7.93
2018-07-05T12:41:35.411Z,9.97
2018-07-05T12:44:14.977Z,9.27
2018-07-05T12:46:56.766Z,11.37
2018-07-05T12:49:36.617Z,10.47
2018-07-05T12:52:17.408Z,12.37
2018-07-05T12:55:01.338Z,12.43
2018-07-05T12:57:44.767Z,7.43
2018-07-05T13:00:27.336Z,11.73
2018-07-05T13:03:07.036Z,12.40
2018-07-05T13:08:40.924Z,8.33
2018-07-05T13:11:22.749Z,10.50
2018-07-05T13:14:16.075Z,9.27
2018-07-05T13:16:55.652Z,8.13
2018-07-05T13:19:36.597Z,9.43
2018-07-05T13:22:17.295Z,10.00
2018-07-05T13:25:02.218Z,9.47
2018-07-05T13:27:37.162Z,8.00
2018-07-05T13:30:20.350Z,10.00
2018-07-05T13:32:59.765Z,10.43
2018-07-05T13:35:39.444Z,8.03
2018-07-05T13:38:22.578Z,9.97
2018-07-05T13:41:02.362Z,8.50
2018-07-05T13:43:45.368Z,8.30
2018-07-05T13:46:24.994Z,13.37
2018-07-05T13:49:05.369Z,8.87
2018-07-05T13:51:45.028Z,7.13
2018-07-05T13:54:24.812Z,7.40
2018-07-05T13:57:09.632Z,5.43
2018-07-05T14:00:00.073Z,6.30
2018-07-05T14:02:41.951Z,5.67
2018-07-05T14:05:26.770Z,4.47
2018-07-05T14:08:07.450Z,3.30
2018-07-05T14:10:48.306Z,4.40
2018-07-05T14:13:30.308Z,8.77
2018-07-05T14:16:12.303Z,4.27
2018-07-05T14:18:52.262Z,4.67
2018-07-05T14:21:34.078Z,4.03
2018-07-05T14:24:16.594Z,6.73
2018-07-05T14:27:00.509Z,2.97
2018-07-05T14:29:41.304Z,3.60
2018-07-05T14:32:21.222Z,4.97
2018-07-05T14:35:02.796Z,6.20
2018-07-05T14:37:44.508Z,4.20
2018-07-05T14:40:28.015Z,4.20
2018-07-05T14:43:10.672Z,5.10
2018-07-05T14:45:51.972Z,2.90
2018-07-05T14:48:36.845Z,4.00
2018-07-05T14:51:20.231Z,6.60
2018-07-05T14:54:03.498Z,4.50
2018-07-05T14:56:48.288Z,3.40
2018-07-05T14:59:29.946Z,5.67
2018-07-05T15:02:10.035Z,6.30
2018-07-05T15:04:49.723Z,4.97
2018-07-05T15:07:30.382Z,4.53
2018-07-05T15:10:10.402Z,4.83
2018-07-05T15:12:50.208Z,6.90
2018-07-05T15:15:32.134Z,4.27
2018-07-05T15:18:12.976Z,3.10
2018-07-05T15:20:55.408Z,3.50
2018-07-05T15:23:34.965Z,3.90
2018-07-05T15:26:15.646Z,4.50
2018-07-05T15:29:00.336Z,3.23
2018-07-05T15:31:42.242Z,3.93
2018-07-05T15:34:22.127Z,4.47
2018-07-05T15:37:02.458Z,3.17
2018-07-05T15:39:44.598Z,3.73
2018-07-05T15:42:25.328Z,4.37
2018-07-05T15:45:08.434Z,4.03
2018-07-05T15:47:51.926Z,2.33
2018-07-05T15:50:32.032Z,3.33
2018-07-05T15:53:12.834Z,5.33
2018-07-05T15:55:58.108Z,3.57
2018-07-05T15:58:39.851Z,3.67
2018-07-05T16:01:23.826Z,3.23
2018-07-05T16:04:04.979Z,5.07
2018-07-05T16:06:44.833Z,2.50
2018-07-05T16:09:24.534Z,4.53
2018-07-05T16:12:04.535Z,3.00
2018-07-05T16:14:47.357Z,4.23
2018-07-05T16:17:27.238Z,2.97
2018-07-05T16:20:06.795Z,4.93
2018-07-05T16:22:48.043Z,6.57
2018-07-05T16:25:29.164Z,3.30
2018-07-05T16:28:09.696Z,2.07
2018-07-05T16:30:51.314Z,2.07
2018-07-05T16:33:33.621Z,2.30
2018-07-05T16:36:08.352Z,2.07
2018-07-05T16:38:51.470Z,3.50
2018-07-05T16:41:32.272Z,2.07
2018-07-05T16:44:13.414Z,2.73
2018-07-05T16:46:58.900Z,2.33
2018-07-05T16:49:42.352Z,1.67
2018-07-05T16:52:24.134Z,3.17
2018-07-05T16:55:06.046Z,1.50
2018-07-05T16:57:45.754Z,2.00
2018-07-05T17:00:30.536Z,1.60
2018-07-05T17:03:10.480Z,1.50
2018-07-05T17:05:51.500Z,1.60
2018-07-05T17:08:36.330Z,1.50
2018-07-05T17:11:14.231Z,1.50
2018-07-05T17:13:55.928Z,1.50
2018-07-05T17:16:35.599Z,2.00
2018-07-05T17:19:15.319Z,2.10
2018-07-05T17:21:56.006Z,2.70
2018-07-05T17:24:36.910Z,1.90
2018-07-05T17:27:16.735Z,3.37
2018-07-05T17:29:58.341Z,2.43
2018-07-05T17:32:44.649Z,2.73
2018-07-05T17:35:29.399Z,3.40
2018-07-05T17:38:12.299Z,2.13
2018-07-05T17:40:52.471Z,2.20
2018-07-05T17:43:32.473Z,1.70
2018-07-05T17:46:13.230Z,2.33
2018-07-05T17:48:58.042Z,2.00
2018-07-05T17:51:33.528Z,4.50
2018-07-05T17:54:14.210Z,1.80
2018-07-05T17:56:54.131Z,1.77
2018-07-05T17:59:34.148Z,2.20
2018-07-05T18:02:13.828Z,1.70
2018-07-05T18:04:53.493Z,1.73
2018-07-05T18:07:35.161Z,1.77
2018-07-05T18:10:16.117Z,4.77
2018-07-05T18:12:55.870Z,2.10
2018-07-05T18:15:35.552Z,1.77
2018-07-05T18:18:19.472Z,1.80
2018-07-05T18:21:01.399Z,1.60
2018-07-05T18:23:41.323Z,2.17
2018-07-05T18:26:21.827Z,1.83
2018-07-05T18:29:03.417Z,1.70
2018-07-05T18:31:43.698Z,1.53
2018-07-05T18:34:24.497Z,1.73
2018-07-05T18:37:09.132Z,4.33
2018-07-05T18:39:49.725Z,2.80
2018-07-05T18:42:30.229Z,2.10
2018-07-05T18:45:11.239Z,2.53
2018-07-05T18:47:51.556Z,2.17
2018-07-05T18:50:31.310Z,3.27
2018-07-05T18:53:12.899Z,2.60
2018-07-05T18:55:52.702Z,2.50
2018-07-05T18:58:33.801Z,2.47
2018-07-05T19:01:14.571Z,5.27
2018-07-05T19:03:55.577Z,3.70
2018-07-05T19:06:35.263Z,2.40
2018-07-05T19:09:20.353Z,3.17
2018-07-05T19:12:00.948Z,2.23
2018-07-05T19:14:40.975Z,3.47
2018-07-05T19:17:20.842Z,2.67
2018-07-05T19:20:05.471Z,3.77
2018-07-05T19:22:48.736Z,2.43
2018-07-05T19:25:24.700Z,2.37
2018-07-05T19:28:08.044Z,3.43
2018-07-05T19:30:49.566Z,3.87
2018-07-05T19:33:30.374Z,3.30
2018-07-05T19:36:14.678Z,4.13
2018-07-05T19:38:59.267Z,4.17
2018-07-05T19:41:39.034Z,5.20
2018-07-05T19:44:18.958Z,4.53
2018-07-05T19:46:58.952Z,5.00
2018-07-05T19:49:39.696Z,4.47
2018-07-05T19:52:20.737Z,5.00
2018-07-05T19:55:01.691Z,7.53
2018-07-05T19:57:42.578Z,7.23
2018-07-05T20:00:22.174Z,6.67
2018-07-05T20:03:01.889Z,5.63
2018-07-05T20:05:41.645Z,9.73
2018-07-05T20:08:25.155Z,8.37
2018-07-05T20:11:04.827Z,6.93
2018-07-05T20:13:45.481Z,6.10
2018-07-05T20:16:25.920Z,4.73
2018-07-05T20:19:07.847Z,6.17
2018-07-05T20:21:41.712Z,7.17
2018-07-05T20:24:23.279Z,6.97
2018-07-05T20:27:06.790Z,6.27
2018-07-05T20:29:46.312Z,6.13
2018-07-05T20:32:27.203Z,5.60
2018-07-05T20:35:13.647Z,6.80
2018-07-05T20:37:54.351Z,7.77
2018-07-05T20:40:34.080Z,7.13
2018-07-05T20:43:14.910Z,8.47
2018-07-05T20:45:56.755Z,5.33
2018-07-05T20:48:43.413Z,8.93
2018-07-05T20:51:25.140Z,6.27
2018-07-05T20:54:04.771Z,6.30
2018-07-05T20:56:46.617Z,10.63
2018-07-05T20:59:26.471Z,7.17
2018-07-05T21:02:10.045Z,8.77
2018-07-05T21:04:50.815Z,9.90
2018-07-05T21:07:30.637Z,13.40
2018-07-05T21:10:10.541Z,8.80
2018-07-05T21:12:54.160Z,8.00
2018-07-05T21:18:28.307Z,8.77
2018-07-05T21:21:09.048Z,9.83
2018-07-05T21:23:54.606Z,9.43
2018-07-05T21:26:35.417Z,8.83
2018-07-05T21:29:15.223Z,8.93
2018-07-05T21:31:56.594Z,8.97
2018-07-05T21:34:39.074Z,10.87
2018-07-05T21:37:30.055Z,10.87
2018-07-05T21:40:15.377Z,8.80
2018-07-05T21:42:55.061Z,11.73
2018-07-05T21:45:36.344Z,9.80
2018-07-05T21:48:18.203Z,10.53
2018-07-05T21:51:00.137Z,10.93
2018-07-05T21:53:42.215Z,13.83
2018-07-05T21:56:22.957Z,10.70
2018-07-05T21:59:05.000Z,13.27
2018-07-05T22:01:42.167Z,11.70
2018-07-05T22:04:23.978Z,10.43
2018-07-05T22:07:06.609Z,8.97
2018-07-05T22:09:53.515Z,10.00
2018-07-05T22:12:42.149Z,15.27
2018-07-05T22:15:23.817Z,10.73
2018-07-05T22:21:01.457Z,9.70
2018-07-05T22:23:46.961Z,9.50
2018-07-05T22:26:33.328Z,9.57
2018-07-05T22:33:37.321Z,9.10
2018-07-05T22:36:18.390Z,12.97
2018-07-05T22:38:59.110Z,10.50
2018-07-05T22:41:42.874Z,11.80
2018-07-05T22:44:27.538Z,10.27
2018-07-05T22:47:10.263Z,11.00
2018-07-05T22:49:54.910Z,10.40
2018-07-05T22:52:36.618Z,11.23
2018-07-05T22:55:16.371Z,10.57
2018-07-05T22:58:01.033Z,11.13
2018-07-05T23:00:40.685Z,11.20
2018-07-05T23:03:15.477Z,12.40
2018-07-05T23:05:55.213Z,12.07
2018-07-05T23:08:44.153Z,13.03
2018-07-05T23:11:27.641Z,12.50
2018-07-05T23:14:09.101Z,10.63
2018-07-05T23:16:55.209Z,11.23
2018-07-05T23:19:34.951Z,13.47
2018-07-05T23:22:14.701Z,17.90
2018-07-05T23:25:01.985Z,11.23
2018-07-05T23:27:41.396Z,11.77
2018-07-05T23:30:24.748Z,14.03
2018-07-05T23:33:06.624Z,11.63
2018-07-05T23:35:52.649Z,14.13
2018-07-05T23:41:26.517Z,15.77
2018-07-05T23:44:09.795Z,14.00
2018-07-05T23:46:49.645Z,10.93
2018-07-05T23:49:29.323Z,12.33
2018-07-05T23:52:10.935Z,13.37
2018-07-05T23:54:50.664Z,11.93
2018-07-05T23:57:30.749Z,14.27
